< < Back
Terminal Aerodrome Forecast


Current Version              Previous Versions:   1  2  3  4  5  6  7  8  9  

Terminal Aerodrome Forecast

910
FTUS42 KFFC 202212 AAA
TAFCSG
TAF AMD
KCSG 202212Z 2022/2118 05005KT P6SM OVC014
     FM210600 06004KT 6SM BR OVC011
     FM211000 06004KT 4SM BR OVC005
     FM211700 08006KT P6SM OVC015=

Latest METAR

523
SAUS70 KWBC 210100
MTRCSG
METAR KCSG 210051Z 07004KT 9SM OVC015 11/09 A3018 RMK AO2 SLP217
T01110089


USA.gov is the U.S. government's official web portal to all federal, state and local government web resources and services.